sensor_id;sensor_type;location;lat;lon;timestamp;P1;durP1;ratioP1;P2;durP2;ratioP2
1721;SDS011;858;53.190;8.596;2023-07-13T00:02:04;6.00;;;5.40;;
1721;SDS011;858;53.190;8.596;2023-07-13T00:04:30;7.70;;;5.97;;
1721;SDS011;858;53.190;8.596;2023-07-13T00:06:57;5.37;;;4.93;;
1721;SDS011;858;53.190;8.596;2023-07-13T00:09:24;7.37;;;5.60;;
1721;SDS011;858;53.190;8.596;2023-07-13T00:11:51;7.67;;;4.93;;
1721;SDS011;858;53.190;8.596;2023-07-13T00:14:17;8.50;;;5.57;;
1721;SDS011;858;53.190;8.596;2023-07-13T00:16:44;5.43;;;4.93;;
1721;SDS011;858;53.190;8.596;2023-07-13T00:19:12;9.43;;;6.10;;
1721;SDS011;858;53.190;8.596;2023-07-13T00:21:39;9.23;;;5.23;;
1721;SDS011;858;53.190;8.596;2023-07-13T00:24:05;6.30;;;5.70;;
1721;SDS011;858;53.190;8.596;2023-07-13T00:26:32;5.80;;;5.13;;
1721;SDS011;858;53.190;8.596;2023-07-13T00:28:59;8.97;;;4.93;;
1721;SDS011;858;53.190;8.596;2023-07-13T00:31:25;6.87;;;5.30;;
1721;SDS011;858;53.190;8.596;2023-07-13T00:33:52;9.53;;;5.50;;
1721;SDS011;858;53.190;8.596;2023-07-13T00:36:19;6.30;;;5.67;;
1721;SDS011;858;53.190;8.596;2023-07-13T00:38:46;8.10;;;5.10;;
1721;SDS011;858;53.190;8.596;2023-07-13T00:41:13;6.00;;;5.40;;
1721;SDS011;858;53.190;8.596;2023-07-13T00:43:40;5.60;;;4.93;;
1721;SDS011;858;53.190;8.596;2023-07-13T00:46:14;9.87;;;5.50;;
1721;SDS011;858;53.190;8.596;2023-07-13T00:48:42;8.03;;;6.27;;
1721;SDS011;858;53.190;8.596;2023-07-13T00:51:10;5.80;;;5.30;;
1721;SDS011;858;53.190;8.596;2023-07-13T00:53:39;6.77;;;6.07;;
1721;SDS011;858;53.190;8.596;2023-07-13T00:56:05;7.60;;;6.77;;
1721;SDS011;858;53.190;8.596;2023-07-13T00:58:32;9.40;;;5.80;;
1721;SDS011;858;53.190;8.596;2023-07-13T01:00:59;10.40;;;5.83;;
1721;SDS011;858;53.190;8.596;2023-07-13T01:03:26;8.63;;;6.60;;
1721;SDS011;858;53.190;8.596;2023-07-13T01:05:52;6.90;;;6.20;;
1721;SDS011;858;53.190;8.596;2023-07-13T01:08:19;9.93;;;6.77;;
1721;SDS011;858;53.190;8.596;2023-07-13T01:13:28;13.23;;;6.70;;
1721;SDS011;858;53.190;8.596;2023-07-13T01:15:55;6.77;;;6.00;;
1721;SDS011;858;53.190;8.596;2023-07-13T01:18:23;11.30;;;7.03;;
1721;SDS011;858;53.190;8.596;2023-07-13T01:20:52;10.47;;;6.50;;
1721;SDS011;858;53.190;8.596;2023-07-13T01:23:19;11.47;;;8.00;;
1721;SDS011;858;53.190;8.596;2023-07-13T01:25:46;7.80;;;7.00;;
1721;SDS011;858;53.190;8.596;2023-07-13T01:28:12;9.80;;;7.07;;
1721;SDS011;858;53.190;8.596;2023-07-13T01:30:39;8.23;;;7.40;;
1721;SDS011;858;53.190;8.596;2023-07-13T01:33:06;9.20;;;7.50;;
1721;SDS011;858;53.190;8.596;2023-07-13T01:35:33;7.47;;;6.77;;
1721;SDS011;858;53.190;8.596;2023-07-13T01:38:01;11.17;;;6.53;;
1721;SDS011;858;53.190;8.596;2023-07-13T01:40:27;7.40;;;6.47;;
1721;SDS011;858;53.190;8.596;2023-07-13T01:42:54;12.83;;;7.20;;
1721;SDS011;858;53.190;8.596;2023-07-13T01:45:20;7.77;;;6.97;;
1721;SDS011;858;53.190;8.596;2023-07-13T01:47:47;9.00;;;6.47;;
1721;SDS011;858;53.190;8.596;2023-07-13T01:50:14;12.53;;;7.73;;
1721;SDS011;858;53.190;8.596;2023-07-13T01:52:41;7.80;;;6.93;;
1721;SDS011;858;53.190;8.596;2023-07-13T01:55:09;11.97;;;7.70;;
1721;SDS011;858;53.190;8.596;2023-07-13T01:57:35;9.80;;;6.90;;
1721;SDS011;858;53.190;8.596;2023-07-13T02:00:02;9.27;;;6.47;;
1721;SDS011;858;53.190;8.596;2023-07-13T02:02:29;9.90;;;7.87;;
1721;SDS011;858;53.190;8.596;2023-07-13T02:04:56;9.30;;;6.97;;
1721;SDS011;858;53.190;8.596;2023-07-13T02:07:22;14.33;;;6.93;;
1721;SDS011;858;53.190;8.596;2023-07-13T02:09:48;8.80;;;7.00;;
1721;SDS011;858;53.190;8.596;2023-07-13T02:12:16;14.47;;;6.70;;
1721;SDS011;858;53.190;8.596;2023-07-13T02:14:43;8.03;;;6.70;;
1721;SDS011;858;53.190;8.596;2023-07-13T02:17:09;10.70;;;7.70;;
1721;SDS011;858;53.190;8.596;2023-07-13T02:19:36;10.50;;;6.90;;
1721;SDS011;858;53.190;8.596;2023-07-13T02:22:02;9.83;;;7.33;;
1721;SDS011;858;53.190;8.596;2023-07-13T02:24:29;8.10;;;7.30;;
1721;SDS011;858;53.190;8.596;2023-07-13T02:26:55;9.73;;;6.53;;
1721;SDS011;858;53.190;8.596;2023-07-13T02:29:23;16.10;;;6.90;;
1721;SDS011;858;53.190;8.596;2023-07-13T02:31:49;8.33;;;6.30;;
1721;SDS011;858;53.190;8.596;2023-07-13T02:34:16;10.90;;;7.37;;
1721;SDS011;858;53.190;8.596;2023-07-13T02:36:42;10.90;;;6.47;;
1721;SDS011;858;53.190;8.596;2023-07-13T02:39:09;14.70;;;7.37;;
1721;SDS011;858;53.190;8.596;2023-07-13T02:41:38;10.43;;;7.90;;
1721;SDS011;858;53.190;8.596;2023-07-13T02:44:05;10.43;;;8.33;;
1721;SDS011;858;53.190;8.596;2023-07-13T02:46:35;12.07;;;7.03;;
1721;SDS011;858;53.190;8.596;2023-07-13T02:49:02;11.00;;;6.73;;
1721;SDS011;858;53.190;8.596;2023-07-13T02:51:29;9.60;;;6.70;;
1721;SDS011;858;53.190;8.596;2023-07-13T02:53:56;10.00;;;6.70;;
1721;SDS011;858;53.190;8.596;2023-07-13T02:56:25;12.77;;;7.43;;
1721;SDS011;858;53.190;8.596;2023-07-13T02:58:52;12.37;;;6.60;;
1721;SDS011;858;53.190;8.596;2023-07-13T03:01:19;9.97;;;7.10;;
1721;SDS011;858;53.190;8.596;2023-07-13T03:03:47;15.47;;;9.20;;
1721;SDS011;858;53.190;8.596;2023-07-13T03:06:14;13.20;;;7.80;;
1721;SDS011;858;53.190;8.596;2023-07-13T03:08:41;15.23;;;8.43;;
1721;SDS011;858;53.190;8.596;2023-07-13T03:11:08;17.80;;;8.80;;
1721;SDS011;858;53.190;8.596;2023-07-13T03:13:36;14.20;;;7.53;;
1721;SDS011;858;53.190;8.596;2023-07-13T03:16:04;11.40;;;7.20;;
1721;SDS011;858;53.190;8.596;2023-07-13T03:18:31;13.20;;;8.57;;
1721;SDS011;858;53.190;8.596;2023-07-13T03:20:59;7.87;;;5.97;;
1721;SDS011;858;53.190;8.596;2023-07-13T03:23:26;10.73;;;7.60;;
1721;SDS011;858;53.190;8.596;2023-07-13T03:26:00;10.97;;;7.23;;
1721;SDS011;858;53.190;8.596;2023-07-13T03:28:28;8.70;;;6.97;;
1721;SDS011;858;53.190;8.596;2023-07-13T03:30:59;11.43;;;8.70;;
1721;SDS011;858;53.190;8.596;2023-07-13T03:33:25;8.93;;;6.87;;
1721;SDS011;858;53.190;8.596;2023-07-13T03:35:52;13.83;;;6.73;;
1721;SDS011;858;53.190;8.596;2023-07-13T03:38:19;9.10;;;7.10;;
1721;SDS011;858;53.190;8.596;2023-07-13T03:40:46;12.33;;;6.47;;
1721;SDS011;858;53.190;8.596;2023-07-13T03:43:12;10.63;;;6.30;;
1721;SDS011;858;53.190;8.596;2023-07-13T03:45:39;10.93;;;6.73;;
1721;SDS011;858;53.190;8.596;2023-07-13T03:48:05;9.20;;;5.87;;
1721;SDS011;858;53.190;8.596;2023-07-13T03:50:31;7.60;;;6.00;;
1721;SDS011;858;53.190;8.596;2023-07-13T03:52:58;13.83;;;6.77;;
1721;SDS011;858;53.190;8.596;2023-07-13T03:55:26;9.17;;;6.07;;
1721;SDS011;858;53.190;8.596;2023-07-13T03:57:54;8.30;;;5.70;;
1721;SDS011;858;53.190;8.596;2023-07-13T04:00:20;11.40;;;5.80;;
1721;SDS011;858;53.190;8.596;2023-07-13T04:02:47;9.43;;;5.40;;
1721;SDS011;858;53.190;8.596;2023-07-13T04:05:14;9.80;;;5.07;;
1721;SDS011;858;53.190;8.596;2023-07-13T04:07:41;9.43;;;5.80;;
1721;SDS011;858;53.190;8.596;2023-07-13T04:10:07;9.67;;;5.57;;
1721;SDS011;858;53.190;8.596;2023-07-13T04:12:35;12.17;;;4.53;;
1721;SDS011;858;53.190;8.596;2023-07-13T04:15:02;8.67;;;5.60;;
1721;SDS011;858;53.190;8.596;2023-07-13T04:17:28;12.30;;;5.90;;
1721;SDS011;858;53.190;8.596;2023-07-13T04:19:55;13.17;;;6.97;;
1721;SDS011;858;53.190;8.596;2023-07-13T04:22:21;9.63;;;4.93;;
1721;SDS011;858;53.190;8.596;2023-07-13T04:24:48;14.57;;;4.70;;
1721;SDS011;858;53.190;8.596;2023-07-13T04:27:14;17.33;;;5.50;;
1721;SDS011;858;53.190;8.596;2023-07-13T04:29:42;17.90;;;4.90;;
1721;SDS011;858;53.190;8.596;2023-07-13T04:32:09;12.70;;;6.03;;
1721;SDS011;858;53.190;8.596;2023-07-13T04:34:35;9.73;;;4.77;;
1721;SDS011;858;53.190;8.596;2023-07-13T04:37:01;14.70;;;4.97;;
1721;SDS011;858;53.190;8.596;2023-07-13T04:39:30;9.00;;;5.20;;
1721;SDS011;858;53.190;8.596;2023-07-13T04:41:57;6.53;;;4.23;;
1721;SDS011;858;53.190;8.596;2023-07-13T04:44:23;11.77;;;4.50;;
1721;SDS011;858;53.190;8.596;2023-07-13T04:46:51;11.67;;;4.87;;
1721;SDS011;858;53.190;8.596;2023-07-13T04:49:17;7.73;;;4.10;;
1721;SDS011;858;53.190;8.596;2023-07-13T04:51:43;11.33;;;4.47;;
1721;SDS011;858;53.190;8.596;2023-07-13T04:54:10;6.53;;;3.93;;
1721;SDS011;858;53.190;8.596;2023-07-13T04:56:36;9.60;;;4.60;;
1721;SDS011;858;53.190;8.596;2023-07-13T04:59:03;12.53;;;4.30;;
1721;SDS011;858;53.190;8.596;2023-07-13T05:01:29;9.07;;;4.10;;
1721;SDS011;858;53.190;8.596;2023-07-13T05:03:57;8.13;;;4.00;;
1721;SDS011;858;53.190;8.596;2023-07-13T05:06:24;10.43;;;4.50;;
1721;SDS011;858;53.190;8.596;2023-07-13T05:08:51;12.00;;;4.90;;
1721;SDS011;858;53.190;8.596;2023-07-13T05:11:17;9.10;;;3.90;;
1721;SDS011;858;53.190;8.596;2023-07-13T05:13:44;11.93;;;4.73;;
1721;SDS011;858;53.190;8.596;2023-07-13T05:16:10;10.50;;;4.63;;
1721;SDS011;858;53.190;8.596;2023-07-13T05:18:37;16.57;;;4.97;;
1721;SDS011;858;53.190;8.596;2023-07-13T05:21:05;16.33;;;4.07;;
1721;SDS011;858;53.190;8.596;2023-07-13T05:23:33;15.87;;;4.67;;
1721;SDS011;858;53.190;8.596;2023-07-13T05:25:59;9.67;;;4.13;;
1721;SDS011;858;53.190;8.596;2023-07-13T05:28:26;10.13;;;4.30;;
1721;SDS011;858;53.190;8.596;2023-07-13T05:30:53;11.47;;;5.10;;
1721;SDS011;858;53.190;8.596;2023-07-13T05:33:21;12.67;;;4.50;;
1721;SDS011;858;53.190;8.596;2023-07-13T05:35:47;13.80;;;5.20;;
1721;SDS011;858;53.190;8.596;2023-07-13T05:38:15;10.73;;;4.50;;
1721;SDS011;858;53.190;8.596;2023-07-13T05:40:42;11.93;;;4.20;;
1721;SDS011;858;53.190;8.596;2023-07-13T05:43:08;9.20;;;4.60;;
1721;SDS011;858;53.190;8.596;2023-07-13T05:45:35;17.97;;;5.23;;
1721;SDS011;858;53.190;8.596;2023-07-13T05:48:01;8.40;;;4.37;;
1721;SDS011;858;53.190;8.596;2023-07-13T05:50:27;14.00;;;5.00;;
1721;SDS011;858;53.190;8.596;2023-07-13T05:52:54;16.40;;;4.77;;
1721;SDS011;858;53.190;8.596;2023-07-13T05:55:23;13.20;;;7.10;;
1721;SDS011;858;53.190;8.596;2023-07-13T05:57:49;7.93;;;3.77;;
1721;SDS011;858;53.190;8.596;2023-07-13T06:00:16;16.17;;;5.00;;
1721;SDS011;858;53.190;8.596;2023-07-13T06:02:42;12.30;;;5.00;;
1721;SDS011;858;53.190;8.596;2023-07-13T06:05:09;11.90;;;4.50;;
1721;SDS011;858;53.190;8.596;2023-07-13T06:07:35;7.77;;;4.90;;
1721;SDS011;858;53.190;8.596;2023-07-13T06:10:02;10.37;;;4.30;;
1721;SDS011;858;53.190;8.596;2023-07-13T06:12:29;15.13;;;4.57;;
1721;SDS011;858;53.190;8.596;2023-07-13T06:14:56;11.07;;;4.30;;
1721;SDS011;858;53.190;8.596;2023-07-13T06:17:22;20.67;;;5.30;;
1721;SDS011;858;53.190;8.596;2023-07-13T06:19:49;14.83;;;5.43;;
1721;SDS011;858;53.190;8.596;2023-07-13T06:22:15;12.20;;;5.53;;
1721;SDS011;858;53.190;8.596;2023-07-13T06:24:41;12.00;;;5.80;;
1721;SDS011;858;53.190;8.596;2023-07-13T06:27:08;16.20;;;4.60;;
1721;SDS011;858;53.190;8.596;2023-07-13T06:29:36;9.80;;;5.10;;
1721;SDS011;858;53.190;8.596;2023-07-13T06:32:02;11.70;;;4.83;;
1721;SDS011;858;53.190;8.596;2023-07-13T06:34:29;10.60;;;5.93;;
1721;SDS011;858;53.190;8.596;2023-07-13T06:36:55;8.27;;;3.97;;
1721;SDS011;858;53.190;8.596;2023-07-13T06:39:21;16.57;;;5.03;;
1721;SDS011;858;53.190;8.596;2023-07-13T06:41:48;12.37;;;6.13;;
1721;SDS011;858;53.190;8.596;2023-07-13T06:44:14;12.57;;;4.63;;
1721;SDS011;858;53.190;8.596;2023-07-13T06:46:44;15.83;;;5.10;;
1721;SDS011;858;53.190;8.596;2023-07-13T06:49:10;16.97;;;5.50;;
1721;SDS011;858;53.190;8.596;2023-07-13T06:51:36;9.73;;;4.83;;
1721;SDS011;858;53.190;8.596;2023-07-13T06:54:03;13.27;;;4.93;;
1721;SDS011;858;53.190;8.596;2023-07-13T06:56:29;11.07;;;5.90;;
1721;SDS011;858;53.190;8.596;2023-07-13T06:58:57;11.97;;;5.70;;
1721;SDS011;858;53.190;8.596;2023-07-13T07:01:23;11.93;;;4.73;;
1721;SDS011;858;53.190;8.596;2023-07-13T07:03:51;15.00;;;6.00;;
1721;SDS011;858;53.190;8.596;2023-07-13T07:06:18;21.40;;;5.93;;
1721;SDS011;858;53.190;8.596;2023-07-13T07:08:45;11.60;;;5.80;;
1721;SDS011;858;53.190;8.596;2023-07-13T07:11:12;8.80;;;5.03;;
1721;SDS011;858;53.190;8.596;2023-07-13T07:13:39;10.07;;;5.10;;
1721;SDS011;858;53.190;8.596;2023-07-13T07:16:05;10.53;;;5.83;;
1721;SDS011;858;53.190;8.596;2023-07-13T07:18:33;10.27;;;5.03;;
1721;SDS011;858;53.190;8.596;2023-07-13T07:21:03;9.73;;;5.40;;
1721;SDS011;858;53.190;8.596;2023-07-13T07:23:30;8.60;;;5.77;;
1721;SDS011;858;53.190;8.596;2023-07-13T07:25:56;8.97;;;5.67;;
1721;SDS011;858;53.190;8.596;2023-07-13T07:28:23;9.37;;;5.50;;
1721;SDS011;858;53.190;8.596;2023-07-13T07:30:52;11.73;;;5.00;;
1721;SDS011;858;53.190;8.596;2023-07-13T07:33:18;11.23;;;5.30;;
1721;SDS011;858;53.190;8.596;2023-07-13T07:35:45;15.53;;;5.80;;
1721;SDS011;858;53.190;8.596;2023-07-13T07:38:12;11.60;;;5.50;;
1721;SDS011;858;53.190;8.596;2023-07-13T07:40:39;7.87;;;5.17;;
1721;SDS011;858;53.190;8.596;2023-07-13T07:43:06;8.10;;;5.10;;
1721;SDS011;858;53.190;8.596;2023-07-13T07:45:34;10.30;;;4.60;;
1721;SDS011;858;53.190;8.596;2023-07-13T07:48:00;9.87;;;4.70;;
1721;SDS011;858;53.190;8.596;2023-07-13T07:50:27;14.23;;;5.73;;
1721;SDS011;858;53.190;8.596;2023-07-13T07:52:54;16.30;;;6.17;;
1721;SDS011;858;53.190;8.596;2023-07-13T07:55:22;14.33;;;5.30;;
1721;SDS011;858;53.190;8.596;2023-07-13T07:57:50;11.20;;;4.83;;
1721;SDS011;858;53.190;8.596;2023-07-13T08:00:16;7.07;;;4.30;;
1721;SDS011;858;53.190;8.596;2023-07-13T08:02:43;10.33;;;5.83;;
1721;SDS011;858;53.190;8.596;2023-07-13T08:05:09;11.20;;;5.57;;
1721;SDS011;858;53.190;8.596;2023-07-13T08:07:36;11.63;;;4.90;;
1721;SDS011;858;53.190;8.596;2023-07-13T08:10:03;8.00;;;5.10;;
1721;SDS011;858;53.190;8.596;2023-07-13T08:12:30;9.43;;;5.07;;
1721;SDS011;858;53.190;8.596;2023-07-13T08:14:59;9.10;;;5.23;;
1721;SDS011;858;53.190;8.596;2023-07-13T08:17:25;5.53;;;4.80;;
1721;SDS011;858;53.190;8.596;2023-07-13T08:19:52;6.43;;;4.93;;
1721;SDS011;858;53.190;8.596;2023-07-13T08:22:19;7.33;;;4.23;;
1721;SDS011;858;53.190;8.596;2023-07-13T08:24:45;8.00;;;5.17;;
1721;SDS011;858;53.190;8.596;2023-07-13T08:27:12;6.83;;;4.43;;
1721;SDS011;858;53.190;8.596;2023-07-13T08:29:40;6.93;;;4.70;;
1721;SDS011;858;53.190;8.596;2023-07-13T08:32:07;11.90;;;4.80;;
1721;SDS011;858;53.190;8.596;2023-07-13T08:34:34;7.20;;;4.20;;
1721;SDS011;858;53.190;8.596;2023-07-13T08:37:01;11.70;;;5.20;;
1721;SDS011;858;53.190;8.596;2023-07-13T08:39:27;10.07;;;4.90;;
1721;SDS011;858;53.190;8.596;2023-07-13T08:41:56;13.03;;;5.00;;
1721;SDS011;858;53.190;8.596;2023-07-13T08:44:25;9.20;;;4.87;;
1721;SDS011;858;53.190;8.596;2023-07-13T08:46:55;10.70;;;4.27;;
1721;SDS011;858;53.190;8.596;2023-07-13T08:49:22;7.90;;;4.30;;
1721;SDS011;858;53.190;8.596;2023-07-13T08:51:50;7.80;;;4.80;;
1721;SDS011;858;53.190;8.596;2023-07-13T08:54:19;8.30;;;4.90;;
1721;SDS011;858;53.190;8.596;2023-07-13T08:56:48;7.73;;;4.00;;
1721;SDS011;858;53.190;8.596;2023-07-13T08:59:18;6.90;;;3.87;;
1721;SDS011;858;53.190;8.596;2023-07-13T09:01:57;7.17;;;3.80;;
1721;SDS011;858;53.190;8.596;2023-07-13T09:04:28;8.83;;;3.50;;
1721;SDS011;858;53.190;8.596;2023-07-13T09:06:58;8.83;;;3.37;;
1721;SDS011;858;53.190;8.596;2023-07-13T09:09:27;6.03;;;3.63;;
1721;SDS011;858;53.190;8.596;2023-07-13T09:12:01;9.43;;;4.47;;
1721;SDS011;858;53.190;8.596;2023-07-13T09:14:39;8.20;;;3.30;;
1721;SDS011;858;53.190;8.596;2023-07-13T09:17:11;14.03;;;4.57;;
1721;SDS011;858;53.190;8.596;2023-07-13T09:19:38;7.10;;;3.33;;
1721;SDS011;858;53.190;8.596;2023-07-13T09:22:09;5.17;;;3.47;;
1721;SDS011;858;53.190;8.596;2023-07-13T09:24:38;6.90;;;3.30;;
1721;SDS011;858;53.190;8.596;2023-07-13T09:27:09;8.40;;;3.90;;
1721;SDS011;858;53.190;8.596;2023-07-13T09:29:39;3.80;;;2.90;;
1721;SDS011;858;53.190;8.596;2023-07-13T09:32:09;10.13;;;3.80;;
1721;SDS011;858;53.190;8.596;2023-07-13T09:34:38;6.17;;;2.90;;
1721;SDS011;858;53.190;8.596;2023-07-13T09:37:04;3.67;;;2.63;;
1721;SDS011;858;53.190;8.596;2023-07-13T09:39:32;6.67;;;3.73;;
1721;SDS011;858;53.190;8.596;2023-07-13T09:42:01;6.50;;;3.20;;
1721;SDS011;858;53.190;8.596;2023-07-13T09:44:34;10.83;;;2.80;;
1721;SDS011;858;53.190;8.596;2023-07-13T09:47:00;7.23;;;2.97;;
1721;SDS011;858;53.190;8.596;2023-07-13T09:49:28;7.97;;;2.73;;
1721;SDS011;858;53.190;8.596;2023-07-13T09:52:00;5.73;;;3.07;;
1721;SDS011;858;53.190;8.596;2023-07-13T09:54:29;5.50;;;2.70;;
1721;SDS011;858;53.190;8.596;2023-07-13T09:56:56;5.43;;;2.70;;
1721;SDS011;858;53.190;8.596;2023-07-13T09:59:24;6.57;;;2.70;;
1721;SDS011;858;53.190;8.596;2023-07-13T10:01:50;3.37;;;3.00;;
1721;SDS011;858;53.190;8.596;2023-07-13T10:04:19;6.03;;;3.07;;
1721;SDS011;858;53.190;8.596;2023-07-13T10:06:46;5.27;;;3.40;;
1721;SDS011;858;53.190;8.596;2023-07-13T10:09:16;4.83;;;3.10;;
1721;SDS011;858;53.190;8.596;2023-07-13T10:11:44;3.40;;;2.47;;
1721;SDS011;858;53.190;8.596;2023-07-13T10:14:11;6.40;;;2.77;;
1721;SDS011;858;53.190;8.596;2023-07-13T10:16:38;5.80;;;3.30;;
1721;SDS011;858;53.190;8.596;2023-07-13T10:19:10;5.67;;;2.90;;
1721;SDS011;858;53.190;8.596;2023-07-13T10:21:39;6.33;;;3.37;;
1721;SDS011;858;53.190;8.596;2023-07-13T10:24:10;4.73;;;3.03;;
1721;SDS011;858;53.190;8.596;2023-07-13T10:26:41;5.43;;;2.73;;
1721;SDS011;858;53.190;8.596;2023-07-13T10:29:09;8.90;;;2.87;;
1721;SDS011;858;53.190;8.596;2023-07-13T10:31:39;6.73;;;3.53;;
1721;SDS011;858;53.190;8.596;2023-07-13T10:34:08;4.97;;;3.13;;
1721;SDS011;858;53.190;8.596;2023-07-13T10:36:37;5.80;;;2.83;;
1721;SDS011;858;53.190;8.596;2023-07-13T10:39:05;8.57;;;2.83;;
1721;SDS011;858;53.190;8.596;2023-07-13T10:41:33;6.20;;;1.97;;
1721;SDS011;858;53.190;8.596;2023-07-13T10:44:02;2.20;;;2.00;;
1721;SDS011;858;53.190;8.596;2023-07-13T10:46:30;4.17;;;2.50;;
1721;SDS011;858;53.190;8.596;2023-07-13T10:48:57;3.73;;;2.70;;
1721;SDS011;858;53.190;8.596;2023-07-13T10:51:24;6.00;;;2.80;;
1721;SDS011;858;53.190;8.596;2023-07-13T10:56:36;6.87;;;3.50;;
1721;SDS011;858;53.190;8.596;2023-07-13T10:59:09;5.53;;;3.93;;
1721;SDS011;858;53.190;8.596;2023-07-13T11:01:40;7.07;;;3.90;;
1721;SDS011;858;53.190;8.596;2023-07-13T11:04:08;5.70;;;3.20;;
1721;SDS011;858;53.190;8.596;2023-07-13T11:06:38;7.67;;;2.83;;
1721;SDS011;858;53.190;8.596;2023-07-13T11:09:17;5.70;;;3.50;;
1721;SDS011;858;53.190;8.596;2023-07-13T11:11:44;7.20;;;2.50;;
1721;SDS011;858;53.190;8.596;2023-07-13T11:14:29;3.53;;;2.67;;
1721;SDS011;858;53.190;8.596;2023-07-13T11:16:55;9.43;;;3.60;;
1721;SDS011;858;53.190;8.596;2023-07-13T11:22:13;5.57;;;3.33;;
1721;SDS011;858;53.190;8.596;2023-07-13T11:27:35;10.17;;;3.73;;
1721;SDS011;858;53.190;8.596;2023-07-13T11:32:45;6.80;;;3.43;;
1721;SDS011;858;53.190;8.596;2023-07-13T11:35:16;4.23;;;3.37;;
1721;SDS011;858;53.190;8.596;2023-07-13T11:37:45;5.83;;;2.20;;
1721;SDS011;858;53.190;8.596;2023-07-13T11:40:12;2.77;;;2.13;;
1721;SDS011;858;53.190;8.596;2023-07-13T11:42:39;3.70;;;3.10;;
1721;SDS011;858;53.190;8.596;2023-07-13T11:45:14;3.33;;;2.20;;
1721;SDS011;858;53.190;8.596;2023-07-13T11:47:45;4.20;;;2.17;;
1721;SDS011;858;53.190;8.596;2023-07-13T11:50:18;2.00;;;1.80;;
1721;SDS011;858;53.190;8.596;2023-07-13T11:52:44;2.60;;;2.23;;
1721;SDS011;858;53.190;8.596;2023-07-13T11:55:13;1.93;;;1.77;;
1721;SDS011;858;53.190;8.596;2023-07-13T11:57:41;3.27;;;2.00;;
1721;SDS011;858;53.190;8.596;2023-07-13T12:00:12;2.73;;;2.10;;
1721;SDS011;858;53.190;8.596;2023-07-13T12:02:40;6.20;;;2.13;;
1721;SDS011;858;53.190;8.596;2023-07-13T12:05:11;3.00;;;2.30;;
1721;SDS011;858;53.190;8.596;2023-07-13T12:07:38;3.87;;;2.00;;
1721;SDS011;858;53.190;8.596;2023-07-13T12:10:13;3.90;;;2.57;;
1721;SDS011;858;53.190;8.596;2023-07-13T12:12:46;4.50;;;2.00;;
1721;SDS011;858;53.190;8.596;2023-07-13T12:15:13;3.70;;;2.70;;
1721;SDS011;858;53.190;8.596;2023-07-13T12:17:40;3.60;;;3.00;;
1721;SDS011;858;53.190;8.596;2023-07-13T12:20:14;7.23;;;3.03;;
1721;SDS011;858;53.190;8.596;2023-07-13T12:22:45;5.33;;;3.00;;
1721;SDS011;858;53.190;8.596;2023-07-13T12:25:12;4.43;;;2.47;;
1721;SDS011;858;53.190;8.596;2023-07-13T12:27:38;3.70;;;2.60;;
1721;SDS011;858;53.190;8.596;2023-07-13T12:30:15;4.30;;;2.30;;
1721;SDS011;858;53.190;8.596;2023-07-13T12:32:54;2.20;;;2.00;;
1721;SDS011;858;53.190;8.596;2023-07-13T12:35:23;3.27;;;2.33;;
1721;SDS011;858;53.190;8.596;2023-07-13T12:37:50;2.80;;;2.20;;
1721;SDS011;858;53.190;8.596;2023-07-13T12:40:17;4.13;;;2.63;;
1721;SDS011;858;53.190;8.596;2023-07-13T12:42:45;5.97;;;2.20;;
1721;SDS011;858;53.190;8.596;2023-07-13T12:45:16;4.97;;;2.00;;
1721;SDS011;858;53.190;8.596;2023-07-13T12:47:47;2.20;;;2.00;;
1721;SDS011;858;53.190;8.596;2023-07-13T12:50:14;5.70;;;2.20;;
1721;SDS011;858;53.190;8.596;2023-07-13T12:52:43;3.17;;;2.77;;
1721;SDS011;858;53.190;8.596;2023-07-13T12:55:11;2.93;;;2.63;;
1721;SDS011;858;53.190;8.596;2023-07-13T12:57:40;3.93;;;3.30;;
1721;SDS011;858;53.190;8.596;2023-07-13T13:00:13;3.90;;;2.87;;
1721;SDS011;858;53.190;8.596;2023-07-13T13:02:45;4.47;;;3.30;;
1721;SDS011;858;53.190;8.596;2023-07-13T13:05:15;3.30;;;2.93;;
1721;SDS011;858;53.190;8.596;2023-07-13T13:07:43;3.60;;;2.90;;
1721;SDS011;858;53.190;8.596;2023-07-13T13:10:12;3.80;;;3.50;;
1721;SDS011;858;53.190;8.596;2023-07-13T13:12:39;4.20;;;3.20;;
1721;SDS011;858;53.190;8.596;2023-07-13T13:15:07;4.23;;;3.57;;
1721;SDS011;858;53.190;8.596;2023-07-13T13:17:34;4.90;;;2.60;;
1721;SDS011;858;53.190;8.596;2023-07-13T13:20:00;4.10;;;3.40;;
1721;SDS011;858;53.190;8.596;2023-07-13T13:22:27;7.10;;;4.73;;
1721;SDS011;858;53.190;8.596;2023-07-13T13:24:55;3.93;;;3.63;;
1721;SDS011;858;53.190;8.596;2023-07-13T13:27:21;7.63;;;4.13;;
1721;SDS011;858;53.190;8.596;2023-07-13T13:29:49;7.53;;;3.13;;
1721;SDS011;858;53.190;8.596;2023-07-13T13:32:16;4.40;;;3.10;;
1721;SDS011;858;53.190;8.596;2023-07-13T13:34:43;3.10;;;2.90;;
1721;SDS011;858;53.190;8.596;2023-07-13T13:37:15;4.10;;;3.23;;
1721;SDS011;858;53.190;8.596;2023-07-13T13:39:43;4.53;;;3.37;;
1721;SDS011;858;53.190;8.596;2023-07-13T13:42:11;3.17;;;2.87;;
1721;SDS011;858;53.190;8.596;2023-07-13T13:44:37;4.90;;;3.20;;
1721;SDS011;858;53.190;8.596;2023-07-13T13:47:07;5.33;;;4.00;;
1721;SDS011;858;53.190;8.596;2023-07-13T13:49:44;3.67;;;2.80;;
1721;SDS011;858;53.190;8.596;2023-07-13T13:52:12;2.90;;;2.60;;
1721;SDS011;858;53.190;8.596;2023-07-13T13:54:38;2.43;;;1.73;;
1721;SDS011;858;53.190;8.596;2023-07-13T13:57:05;1.83;;;1.53;;
1721;SDS011;858;53.190;8.596;2023-07-13T13:59:33;1.70;;;1.53;;
1721;SDS011;858;53.190;8.596;2023-07-13T14:02:07;2.40;;;1.70;;
1721;SDS011;858;53.190;8.596;2023-07-13T14:04:37;2.13;;;1.83;;
1721;SDS011;858;53.190;8.596;2023-07-13T14:07:03;1.90;;;1.70;;
1721;SDS011;858;53.190;8.596;2023-07-13T14:09:30;4.43;;;2.00;;
1721;SDS011;858;53.190;8.596;2023-07-13T14:11:57;4.10;;;1.50;;
1721;SDS011;858;53.190;8.596;2023-07-13T14:14:24;1.73;;;1.63;;
1721;SDS011;858;53.190;8.596;2023-07-13T14:16:53;2.60;;;1.70;;
1721;SDS011;858;53.190;8.596;2023-07-13T14:19:22;3.73;;;2.20;;
1721;SDS011;858;53.190;8.596;2023-07-13T14:21:49;2.73;;;1.70;;
1721;SDS011;858;53.190;8.596;2023-07-13T14:24:18;4.17;;;2.40;;
1721;SDS011;858;53.190;8.596;2023-07-13T14:26:45;13.47;;;3.60;;
1721;SDS011;858;53.190;8.596;2023-07-13T14:29:12;9.87;;;3.53;;
1721;SDS011;858;53.190;8.596;2023-07-13T14:31:39;10.33;;;4.17;;
1721;SDS011;858;53.190;8.596;2023-07-13T14:34:08;4.13;;;2.67;;
1721;SDS011;858;53.190;8.596;2023-07-13T14:36:36;8.83;;;2.70;;
1721;SDS011;858;53.190;8.596;2023-07-13T14:39:09;5.03;;;3.10;;
1721;SDS011;858;53.190;8.596;2023-07-13T14:41:36;3.13;;;2.73;;
1721;SDS011;858;53.190;8.596;2023-07-13T14:44:07;5.50;;;2.97;;
1721;SDS011;858;53.190;8.596;2023-07-13T14:46:34;6.43;;;3.57;;
1721;SDS011;858;53.190;8.596;2023-07-13T14:49:02;6.03;;;3.07;;
1721;SDS011;858;53.190;8.596;2023-07-13T14:51:31;5.30;;;2.70;;
1721;SDS011;858;53.190;8.596;2023-07-13T14:53:58;6.57;;;3.50;;
1721;SDS011;858;53.190;8.596;2023-07-13T14:56:24;7.03;;;3.43;;
1721;SDS011;858;53.190;8.596;2023-07-13T14:58:51;4.57;;;2.93;;
1721;SDS011;858;53.190;8.596;2023-07-13T15:01:18;3.47;;;3.10;;
1721;SDS011;858;53.190;8.596;2023-07-13T15:03:47;6.93;;;3.60;;
1721;SDS011;858;53.190;8.596;2023-07-13T15:06:15;4.83;;;2.53;;
1721;SDS011;858;53.190;8.596;2023-07-13T15:08:43;6.10;;;3.50;;
1721;SDS011;858;53.190;8.596;2023-07-13T15:11:10;4.50;;;3.43;;
1721;SDS011;858;53.190;8.596;2023-07-13T15:13:38;5.60;;;3.20;;
1721;SDS011;858;53.190;8.596;2023-07-13T15:16:05;6.83;;;3.60;;
1721;SDS011;858;53.190;8.596;2023-07-13T15:18:37;7.33;;;3.40;;
1721;SDS011;858;53.190;8.596;2023-07-13T15:21:08;3.03;;;2.53;;
1721;SDS011;858;53.190;8.596;2023-07-13T15:23:34;3.17;;;2.50;;
1721;SDS011;858;53.190;8.596;2023-07-13T15:26:02;2.93;;;2.53;;
1721;SDS011;858;53.190;8.596;2023-07-13T15:28:29;2.60;;;2.20;;
1721;SDS011;858;53.190;8.596;2023-07-13T15:30:55;2.30;;;2.10;;
1721;SDS011;858;53.190;8.596;2023-07-13T15:33:22;2.50;;;2.23;;
1721;SDS011;858;53.190;8.596;2023-07-13T15:35:49;3.30;;;2.20;;
1721;SDS011;858;53.190;8.596;2023-07-13T15:38:16;2.00;;;1.90;;
1721;SDS011;858;53.190;8.596;2023-07-13T15:40:43;2.60;;;2.30;;
1721;SDS011;858;53.190;8.596;2023-07-13T15:43:12;3.77;;;2.40;;